Time;durP1;ratioP1;P1;durP2;ratioP2;P2;SDS_P1;SDS_P2;PMS_P1;PMS_P2;Temp;Humidity;BMP_temperature;BMP_pressure;BME280_temperature;BME280_humidity;BME280_pressure;Samples;Min_cycle;Max_cycle;Signal;HPM_P1;HPM_P2
2021/11/28 00:00:44;;;;;;;186.45;61.88;;;;;;;1.33;100.00;99607.63;5017420;28;20091;-73
2021/11/28 00:03:12;;;;;;;179.02;60.40;;;;;;;1.32;100.00;99609.44;5035116;28;20477;-73
2021/11/28 00:05:37;;;;;;;199.43;61.45;;;;;;;1.35;100.00;99613.63;5035908;28;20378;-73
2021/11/28 00:08:20;;;;;;;193.68;60.47;;;;;;;1.37;100.00;99609.09;5035851;28;20037;-73
2021/11/28 00:10:58;;;;;;;202.85;59.80;;;;;;;1.38;100.00;99621.25;5035816;28;20033;-73
2021/11/28 00:15:55;;;;;;;208.50;58.00;;;;;;;1.41;100.00;99621.88;5035772;28;20057;-73
2021/11/28 00:18:22;;;;;;;210.80;57.15;;;;;;;1.43;100.00;99613.06;5035122;28;20477;-73
2021/11/28 00:20:47;;;;;;;213.15;59.47;;;;;;;1.45;100.00;99619.03;5035089;28;20561;-73
2021/11/28 00:23:13;;;;;;;226.15;57.53;;;;;;;1.47;100.00;99614.53;5034918;28;20120;-74
2021/11/28 00:25:38;;;;;;;214.05;57.33;;;;;;;1.48;100.00;99618.78;5035514;28;20029;-73
2021/11/28 00:28:04;;;;;;;208.02;56.15;;;;;;;1.49;100.00;99620.47;5035555;28;20096;-73
2021/11/28 00:30:30;;;;;;;204.55;55.70;;;;;;;1.50;100.00;99624.78;5035324;28;20034;-72
2021/11/28 00:32:59;;;;;;;200.00;53.53;;;;;;;1.50;100.00;99632.66;5035407;28;20038;-73
2021/11/28 00:35:24;;;;;;;214.70;54.13;;;;;;;1.51;100.00;99634.34;5034875;28;20037;-73
2021/11/28 00:37:50;;;;;;;187.23;53.65;;;;;;;1.53;100.00;99640.28;5035440;28;20037;-73
2021/11/28 00:40:15;;;;;;;208.30;54.38;;;;;;;1.53;100.00;99641.13;5034718;28;20068;-73
2021/11/28 00:42:41;;;;;;;192.85;52.80;;;;;;;1.53;100.00;99632.44;5034862;28;20107;-73
2021/11/28 00:45:07;;;;;;;201.98;51.67;;;;;;;1.54;100.00;99639.34;5035262;28;20033;-73
2021/11/28 00:47:33;;;;;;;200.10;53.55;;;;;;;1.56;100.00;99638.28;5034695;28;20505;-73
2021/11/28 00:50:17;;;;;;;211.48;53.45;;;;;;;1.56;100.00;99640.06;5035074;28;20428;-73
2021/11/28 00:52:43;;;;;;;204.52;55.00;;;;;;;1.58;100.00;99653.91;5035231;28;20318;-73
2021/11/28 00:55:10;;;;;;;202.25;52.40;;;;;;;1.58;100.00;99649.50;5034991;28;20038;-73
2021/11/28 00:57:36;;;;;;;199.02;51.78;;;;;;;1.57;100.00;99649.63;5034836;28;20045;-73
2021/11/28 01:00:05;;;;;;;191.20;50.95;;;;;;;1.56;100.00;99651.38;5034874;28;20029;-73
2021/11/28 01:02:31;;;;;;;194.70;53.17;;;;;;;1.56;100.00;99656.63;5034325;28;20065;-73
2021/11/28 01:04:57;;;;;;;195.13;51.55;;;;;;;1.57;100.00;99662.72;5034613;28;20100;-73
2021/11/28 01:07:22;;;;;;;192.13;53.17;;;;;;;1.57;100.00;99668.81;5034305;28;20030;-73
2021/11/28 01:09:48;;;;;;;215.95;54.75;;;;;;;1.58;100.00;99673.09;5034845;28;20034;-73
2021/11/28 01:12:13;;;;;;;197.30;52.75;;;;;;;1.59;100.00;99671.31;5034754;28;20033;-73
2021/11/28 01:14:39;;;;;;;190.35;52.80;;;;;;;1.59;100.00;99674.75;5034136;28;20030;-73
2021/11/28 01:17:05;;;;;;;187.00;49.95;;;;;;;1.59;100.00;99679.19;5016942;28;20066;-73
2021/11/28 01:19:31;;;;;;;196.57;53.10;;;;;;;1.59;100.00;99685.25;5034436;28;20152;-73
2021/11/28 01:22:03;;;;;;;188.75;52.50;;;;;;;1.61;100.00;99686.94;5034456;28;20076;-73
2021/11/28 01:24:29;;;;;;;193.52;53.00;;;;;;;1.61;100.00;99693.00;5034118;28;20192;-73
2021/11/28 01:26:55;;;;;;;199.73;52.50;;;;;;;1.62;100.00;99691.25;5034306;28;20068;-73
2021/11/28 01:29:20;;;;;;;201.43;52.50;;;;;;;1.62;100.00;99689.44;5033875;28;20057;-73
2021/11/28 01:31:46;;;;;;;204.77;54.13;;;;;;;1.63;100.00;99703.38;5033901;28;20037;-73
2021/11/28 01:34:11;;;;;;;188.88;54.10;;;;;;;1.64;100.00;99705.91;5033976;28;20055;-73
2021/11/28 01:36:37;;;;;;;189.32;52.50;;;;;;;1.64;100.00;99705.91;5033458;28;20090;-73
2021/11/28 01:39:08;;;;;;;198.07;52.92;;;;;;;1.63;100.00;99696.38;5052049;22;20140;-73
2021/11/28 01:41:34;;;;;;;185.93;51.20;;;;;;;1.62;100.00;99699.94;5053347;28;20041;-73
2021/11/28 01:44:00;;;;;;;158.88;49.88;;;;;;;1.52;100.00;99704.16;5054252;28;20037;-73
2021/11/28 01:46:26;;;;;;;145.23;45.13;;;;;;;1.36;100.00;99702.63;5035821;28;20029;-73
2021/11/28 01:48:52;;;;;;;138.45;45.10;;;;;;;1.18;100.00;99699.50;5053609;28;20064;-73
2021/11/28 01:51:18;;;;;;;129.98;44.33;;;;;;;0.98;100.00;99705.28;5053460;28;20044;-73
2021/11/28 01:53:45;;;;;;;141.27;44.50;;;;;;;0.80;100.00;99716.06;5053260;28;20029;-73
2021/11/28 01:56:11;;;;;;;150.45;46.03;;;;;;;0.64;100.00;99720.66;5053772;28;20091;-73
2021/11/28 01:58:37;;;;;;;150.98;44.28;;;;;;;0.55;100.00;99724.72;5052960;28;20029;-73
2021/11/28 02:01:07;;;;;;;181.48;47.67;;;;;;;0.53;100.00;99734.47;5053820;28;20112;-73
2021/11/28 02:03:36;;;;;;;191.85;50.53;;;;;;;0.59;100.00;99730.63;5053144;28;20393;-73
2021/11/28 02:06:02;;;;;;;205.07;52.03;;;;;;;0.68;100.00;99733.44;5053562;28;20482;-73
2021/11/28 02:08:27;;;;;;;220.98;54.03;;;;;;;0.77;100.00;99731.97;5053083;28;20060;-73
2021/11/28 02:10:53;;;;;;;219.05;54.30;;;;;;;0.85;100.00;99732.31;5053451;28;20028;-73
2021/11/28 02:13:20;;;;;;;191.75;49.05;;;;;;;0.90;100.00;99734.63;5053465;28;20512;-73
2021/11/28 02:15:45;;;;;;;190.07;50.95;;;;;;;0.88;100.00;99728.63;5052632;28;20414;-73
2021/11/28 02:18:11;;;;;;;185.95;49.95;;;;;;;0.85;100.00;99724.47;5053605;28;20040;-73
2021/11/28 02:20:51;;;;;;;181.85;47.88;;;;;;;0.77;100.00;99739.84;5052933;28;20112;-73
2021/11/28 02:23:18;;;;;;;169.57;46.00;;;;;;;0.66;100.00;99737.94;5053214;28;20373;-73
2021/11/28 02:25:44;;;;;;;159.05;44.95;;;;;;;0.55;100.00;99743.03;5052805;28;20029;-73
2021/11/28 02:28:09;;;;;;;181.30;47.55;;;;;;;0.51;100.00;99752.06;5035520;28;20111;-73
2021/11/28 02:30:35;;;;;;;180.68;47.40;;;;;;;0.52;100.00;99754.59;5052712;28;20057;-73
2021/11/28 02:33:01;;;;;;;189.00;47.83;;;;;;;0.55;100.00;99750.91;5053077;28;20048;-73
2021/11/28 02:35:30;;;;;;;177.50;45.42;;;;;;;0.57;100.00;99754.28;5052673;28;20037;-76
2021/11/28 02:37:56;;;;;;;189.02;47.97;;;;;;;0.56;100.00;99754.38;5052888;28;20083;-73
2021/11/28 02:40:24;;;;;;;164.45;44.38;;;;;;;0.48;100.00;99766.19;5052785;28;20048;-73
2021/11/28 02:42:50;;;;;;;165.93;43.92;;;;;;;0.41;100.00;99772.75;5052277;28;20385;-73
2021/11/28 02:45:18;;;;;;;163.43;43.47;;;;;;;0.36;100.00;99769.63;5052940;28;20028;-73
2021/11/28 02:47:44;;;;;;;166.95;44.78;;;;;;;0.30;100.00;99770.00;5052134;28;20112;-73
2021/11/28 02:50:13;;;;;;;144.82;40.15;;;;;;;0.20;100.00;99768.94;5052900;28;20461;-73
2021/11/28 02:52:39;;;;;;;172.27;43.25;;;;;;;0.08;100.00;99770.56;5052108;28;20451;-73
2021/11/28 02:55:06;;;;;;;157.20;40.90;;;;;;;-0.05;100.00;99773.09;5052775;28;20056;-73
2021/11/28 02:57:32;;;;;;;152.63;39.20;;;;;;;-0.17;100.00;99771.28;5052294;28;20059;-73
2021/11/28 02:59:58;;;;;;;142.98;38.05;;;;;;;-0.31;100.00;99769.50;5052711;28;20029;-73
2021/11/28 03:02:23;;;;;;;121.55;34.92;;;;;;;-0.41;100.00;99772.69;5051815;28;20029;-73
2021/11/28 03:04:50;;;;;;;141.63;38.70;;;;;;;-0.49;100.00;99774.09;5052022;28;20336;-73
2021/11/28 03:07:17;;;;;;;162.45;42.00;;;;;;;-0.58;100.00;99771.13;5052476;28;20143;-73
2021/11/28 03:09:43;;;;;;;136.98;36.80;;;;;;;-0.66;100.00;99768.13;5052148;28;20036;-73
2021/11/28 03:12:08;;;;;;;115.30;33.88;;;;;;;-0.74;100.00;99765.16;5052234;28;20032;-73
2021/11/28 03:14:34;;;;;;;113.15;32.63;;;;;;;-0.81;100.00;99763.84;5051852;28;20029;-73
2021/11/28 03:16:59;;;;;;;103.88;30.88;;;;;;;-0.89;100.00;99761.69;5034737;28;20040;-73
2021/11/28 03:19:25;;;;;;;104.18;32.17;;;;;;;-0.95;100.00;99772.50;5052820;28;20047;-73
2021/11/28 03:21:50;;;;;;;104.47;30.42;;;;;;;-1.03;100.00;99764.28;5034143;28;20033;-73
2021/11/28 03:24:16;;;;;;;133.32;34.95;;;;;;;-1.10;100.00;99772.47;5052494;28;20377;-72
2021/11/28 03:26:42;;;;;;;113.82;34.25;;;;;;;-1.13;100.00;99774.44;5052021;28;20373;-73
2021/11/28 03:29:12;;;;;;;102.32;28.95;;;;;;;-1.20;100.00;99773.13;5052563;28;20127;-73
2021/11/28 03:31:41;;;;;;;91.63;27.42;;;;;;;-1.25;100.00;99783.84;5051948;28;20120;-73
2021/11/28 03:34:08;;;;;;;126.45;31.77;;;;;;;-1.28;100.00;99784.00;5052423;28;20115;-73
2021/11/28 03:36:39;;;;;;;138.27;33.95;;;;;;;-1.31;100.00;99790.25;5051963;28;20032;-77
2021/11/28 03:39:07;;;;;;;146.70;36.42;;;;;;;-1.34;100.00;99785.22;5052067;28;20107;-73
2021/11/28 03:41:33;;;;;;;135.77;36.20;;;;;;;-1.37;100.00;99781.91;5052303;28;20077;-72
2021/11/28 03:43:59;;;;;;;124.35;32.70;;;;;;;-1.39;100.00;99781.19;5051809;28;20130;-72
2021/11/28 03:46:27;;;;;;;156.27;36.78;;;;;;;-1.42;100.00;99780.44;5052377;28;20036;-72
2021/11/28 03:48:53;;;;;;;172.23;37.22;;;;;;;-1.43;100.00;99776.13;5033995;28;20044;-72
2021/11/28 03:51:18;;;;;;;122.68;32.00;;;;;;;-1.45;100.00;99784.97;5051964;28;20033;-73
2021/11/28 03:53:44;;;;;;;149.27;36.38;;;;;;;-1.48;100.00;99780.78;5051703;28;20032;-73
2021/11/28 03:56:10;;;;;;;149.65;36.35;;;;;;;-1.49;100.00;99779.09;5051887;28;20033;-73
2021/11/28 03:58:38;;;;;;;153.85;36.90;;;;;;;-1.51;100.00;99780.94;5052323;28;20032;-73
2021/11/28 04:01:06;;;;;;;165.13;39.00;;;;;;;-1.55;100.00;99787.28;5052376;28;20033;-73
2021/11/28 04:03:32;;;;;;;153.77;35.67;;;;;;;-1.55;100.00;99791.63;5052217;28;20407;-73
2021/11/28 04:05:57;;;;;;;168.77;38.22;;;;;;;-1.57;100.00;99786.50;5051690;28;20037;-73
2021/11/28 04:08:23;;;;;;;137.60;33.10;;;;;;;-1.58;100.00;99787.47;5051762;28;20037;-73
2021/11/28 04:10:49;;;;;;;175.20;38.42;;;;;;;-1.58;100.00;99787.47;5051542;28;20039;-73
2021/11/28 04:13:15;;;;;;;190.10;40.38;;;;;;;-1.59;100.00;99788.38;5052493;28;20059;-73
2021/11/28 04:15:41;;;;;;;152.65;34.85;;;;;;;-1.62;100.00;99784.16;5055197;28;20025;-73
2021/11/28 04:18:06;;;;;;;167.73;38.30;;;;;;;-1.62;100.00;99788.56;5055923;28;20484;-73
2021/11/28 04:20:33;;;;;;;171.90;39.63;;;;;;;-1.64;100.00;99793.88;5055497;28;20500;-73
2021/11/28 04:22:59;;;;;;;188.77;40.08;;;;;;;-1.63;100.00;99794.69;5054795;28;20428;-73
2021/11/28 04:25:24;;;;;;;168.57;36.75;;;;;;;-1.65;100.00;99794.78;5055687;28;20033;-73
2021/11/28 04:27:50;;;;;;;177.60;38.17;;;;;;;-1.67;100.00;99794.03;5055138;28;20508;-73
2021/11/28 04:30:15;;;;;;;168.77;36.97;;;;;;;-1.69;100.00;99789.81;5055418;28;20473;-73
2021/11/28 04:32:41;;;;;;;174.05;39.03;;;;;;;-1.72;100.00;99784.78;5054930;28;20036;-79
2021/11/28 04:35:07;;;;;;;144.25;32.38;;;;;;;-1.73;100.00;99794.38;5055091;28;20094;-73
2021/11/28 04:37:33;;;;;;;146.85;33.33;;;;;;;-1.75;100.00;99785.78;5055494;28;20029;-73
2021/11/28 04:39:59;;;;;;;152.63;33.83;;;;;;;-1.73;100.00;99788.31;5054482;28;20048;-73
2021/11/28 04:42:26;;;;;;;166.57;33.28;;;;;;;-1.73;100.00;99780.47;5054937;28;20029;-73
2021/11/28 04:44:52;;;;;;;184.73;35.72;;;;;;;-1.65;100.00;99794.78;5054762;28;20044;-73
2021/11/28 04:47:20;;;;;;;165.07;36.90;;;;;;;-1.59;100.00;99796.22;5055095;28;20029;-74
2021/11/28 04:49:48;;;;;;;189.98;37.60;;;;;;;-1.60;100.00;99791.91;5054657;28;20029;-73
2021/11/28 04:52:13;;;;;;;186.68;37.85;;;;;;;-1.62;100.00;99784.16;5054948;28;20064;-73
2021/11/28 04:54:39;;;;;;;157.95;32.90;;;;;;;-1.64;100.00;99799.06;5055058;28;20454;-73
2021/11/28 04:57:05;;;;;;;132.52;32.03;;;;;;;-1.63;100.00;99792.94;5054559;28;20450;-73
2021/11/28 04:59:30;;;;;;;190.85;38.67;;;;;;;-1.57;100.00;99796.94;5055180;28;20488;-73
2021/11/28 05:01:55;;;;;;;179.32;36.30;;;;;;;-1.54;100.00;99802.00;5053531;28;20114;-73
2021/11/28 05:04:21;;;;;;;188.95;39.33;;;;;;;-1.46;100.00;99799.81;5054473;28;20428;-73
2021/11/28 05:06:46;;;;;;;194.93;40.70;;;;;;;-1.40;100.00;99798.63;5036378;28;20031;-78
2021/11/28 05:09:12;;;;;;;178.77;36.70;;;;;;;-1.43;100.00;99804.00;5054244;28;20082;-73
2021/11/28 05:11:37;;;;;;;180.20;37.60;;;;;;;-1.48;100.00;99801.66;5054531;28;20029;-73
2021/11/28 05:14:03;;;;;;;182.05;37.65;;;;;;;-1.51;100.00;99814.84;5036072;28;20033;-73
2021/11/28 05:16:28;;;;;;;179.57;36.63;;;;;;;-1.52;100.00;99810.59;5054363;28;20025;-73
2021/11/28 05:18:54;;;;;;;188.82;38.10;;;;;;;-1.49;100.00;99820.03;5035955;28;20469;-73
2021/11/28 05:21:19;;;;;;;214.18;41.08;;;;;;;-1.43;100.00;99828.31;5054486;28;20033;-73
2021/11/28 05:23:45;;;;;;;207.07;41.40;;;;;;;-1.40;100.00;99823.84;5053986;28;20381;-73
2021/11/28 05:26:10;;;;;;;188.85;38.63;;;;;;;-1.41;100.00;99823.03;5052640;28;20036;-73
2021/11/28 05:28:36;;;;;;;202.32;40.40;;;;;;;-1.41;100.00;99817.81;5035964;28;20029;-73
2021/11/28 05:31:02;;;;;;;168.48;35.20;;;;;;;-1.44;100.00;99815.38;5053513;28;20090;-73
2021/11/28 05:33:27;;;;;;;194.45;39.20;;;;;;;-1.48;100.00;99819.94;5054314;28;20040;-73
2021/11/28 05:35:52;;;;;;;201.35;40.13;;;;;;;-1.50;100.00;99813.94;5053391;28;20033;-74
2021/11/28 05:38:18;;;;;;;174.40;35.63;;;;;;;-1.50;100.00;99816.56;5053876;28;20033;-73
2021/11/28 05:40:43;;;;;;;182.65;37.55;;;;;;;-1.47;100.00;99812.94;5053871;28;20049;-73
2021/11/28 05:43:09;;;;;;;193.25;39.00;;;;;;;-1.46;100.00;99815.44;5052828;28;20051;-73
2021/11/28 05:45:34;;;;;;;175.07;38.22;;;;;;;-1.45;100.00;99818.91;5053465;28;20036;-73
2021/11/28 05:47:59;;;;;;;194.02;38.80;;;;;;;-1.44;100.00;99824.03;5053090;28;20040;-73
2021/11/28 05:50:28;;;;;;;192.90;38.10;;;;;;;-1.40;100.00;99823.84;5053480;28;20436;-73
2021/11/28 05:52:54;;;;;;;221.98;40.63;;;;;;;-1.36;100.00;99825.38;5052921;28;20041;-77
2021/11/28 05:55:20;;;;;;;216.45;40.70;;;;;;;-1.33;100.00;99831.25;5053554;28;20111;-73
2021/11/28 05:57:46;;;;;;;218.48;41.55;;;;;;;-1.31;100.00;99831.19;5053487;28;20465;-73
2021/11/28 06:00:14;;;;;;;218.75;42.13;;;;;;;-1.26;100.00;99836.97;5052833;28;20206;-72
2021/11/28 06:02:40;;;;;;;218.02;40.30;;;;;;;-1.27;100.00;99840.50;5053225;28;20373;-73
2021/11/28 06:05:07;;;;;;;201.38;39.70;;;;;;;-1.28;100.00;99846.66;5052453;28;20033;-73
2021/11/28 06:07:32;;;;;;;223.70;41.45;;;;;;;-1.31;100.00;99844.22;5053748;28;20037;-73
2021/11/28 06:09:58;;;;;;;219.15;42.30;;;;;;;-1.32;100.00;99843.38;5052419;28;20167;-73
2021/11/28 06:12:23;;;;;;;211.18;41.17;;;;;;;-1.35;100.00;99843.53;5053193;28;20392;-73
2021/11/28 06:14:49;;;;;;;207.75;41.25;;;;;;;-1.38;100.00;99848.09;5052952;28;20486;-72
2021/11/28 06:17:14;;;;;;;200.70;37.65;;;;;;;-1.40;100.00;99847.34;5052527;28;20044;-72
2021/11/28 06:19:40;;;;;;;217.23;39.00;;;;;;;-1.44;100.00;99849.28;5052850;28;20029;-72
2021/11/28 06:22:08;;;;;;;210.68;39.30;;;;;;;-1.46;100.00;99848.56;5052341;28;20411;-73
2021/11/28 06:24:35;;;;;;;226.90;42.25;;;;;;;-1.44;100.00;99852.72;5052905;28;20033;-73
2021/11/28 06:27:01;;;;;;;230.75;42.80;;;;;;;-1.44;100.00;99855.34;5052295;28;20041;-73
2021/11/28 06:29:26;;;;;;;239.25;41.58;;;;;;;-1.39;100.00;99865.50;5053032;28;20102;-72
2021/11/28 06:31:51;;;;;;;225.88;42.42;;;;;;;-1.34;100.00;99865.28;5052665;28;20029;-72
2021/11/28 06:34:17;;;;;;;229.88;39.83;;;;;;;-1.31;100.00;99871.16;5051921;28;20025;-72
2021/11/28 06:36:42;;;;;;;242.30;42.90;;;;;;;-1.25;100.00;99867.38;5052748;28;20457;-73
2021/11/28 06:39:08;;;;;;;226.60;42.30;;;;;;;-1.20;100.00;99867.94;5034425;28;20037;-73
2021/11/28 06:41:33;;;;;;;248.02;43.45;;;;;;;-1.13;100.00;99879.72;5053166;28;20064;-72
2021/11/28 06:43:58;;;;;;;224.32;42.60;;;;;;;-1.05;100.00;99879.25;5052307;28;20029;-77
2021/11/28 06:46:24;;;;;;;218.63;40.45;;;;;;;-0.97;100.00;99879.69;5052234;28;20025;-72
2021/11/28 06:48:50;;;;;;;233.05;42.30;;;;;;;-0.85;100.00;99872.03;5052527;28;20037;-72
2021/11/28 06:51:15;;;;;;;240.20;42.97;;;;;;;-0.77;100.00;99875.88;5051630;28;20041;-72
2021/11/28 06:53:41;;;;;;;229.70;40.78;;;;;;;-0.69;100.00;99872.81;5052549;28;20064;-72
2021/11/28 06:56:06;;;;;;;234.57;41.22;;;;;;;-0.64;100.00;99883.00;5052203;28;20032;-72
2021/11/28 06:58:33;;;;;;;226.32;43.03;;;;;;;-0.61;100.00;99881.06;5052432;28;20033;-72
2021/11/28 07:00:59;;;;;;;245.95;41.88;;;;;;;-0.56;100.00;99889.44;5052421;28;20036;-72
2021/11/28 07:03:24;;;;;;;236.48;41.97;;;;;;;-0.49;100.00;99887.31;5033445;28;20033;-72
2021/11/28 07:05:50;;;;;;;218.82;38.85;;;;;;;-0.48;100.00;99890.78;5052154;28;20029;-72
2021/11/28 07:08:15;;;;;;;210.10;37.65;;;;;;;-0.47;100.00;99895.06;5051189;28;20114;-72
2021/11/28 07:10:41;;;;;;;204.32;38.70;;;;;;;-0.46;100.00;99894.13;5052454;28;20017;-73
2021/11/28 07:13:07;;;;;;;230.02;39.92;;;;;;;-0.44;100.00;99903.56;5051478;28;20087;-73
2021/11/28 07:15:32;;;;;;;214.45;39.17;;;;;;;-0.37;100.00;99911.91;5052185;28;20500;-73
2021/11/28 07:17:58;;;;;;;229.50;40.97;;;;;;;-0.30;100.00;99908.00;5052056;28;20037;-73
2021/11/28 07:20:25;;;;;;;226.15;40.78;;;;;;;-0.22;100.00;99918.81;5051600;28;20029;-73
2021/11/28 07:22:50;;;;;;;237.88;42.15;;;;;;;-0.11;100.00;99933.84;5052180;28;20083;-73
2021/11/28 07:25:17;;;;;;;249.27;43.20;;;;;;;-0.01;100.00;99929.75;5051306;28;20037;-73
2021/11/28 07:27:42;;;;;;;239.95;40.30;;;;;;;0.05;100.00;99936.38;5052150;28;20033;-73
2021/11/28 07:30:08;;;;;;;245.20;43.67;;;;;;;0.09;100.00;99950.97;5051654;28;20044;-73
2021/11/28 07:32:33;;;;;;;167.82;38.97;;;;;;;0.19;100.00;99945.97;5052161;28;20044;-72
2021/11/28 07:34:59;;;;;;;175.27;36.90;;;;;;;0.37;100.00;99953.63;5052132;28;20033;-72
2021/11/28 07:37:24;;;;;;;181.48;32.67;;;;;;;0.53;100.00;99951.75;5051299;28;20628;-72
2021/11/28 07:39:50;;;;;;;131.25;24.90;;;;;;;0.69;100.00;99957.69;5051585;28;20049;-71
2021/11/28 07:42:15;;;;;;;123.95;22.77;;;;;;;0.79;100.00;99962.34;5051496;28;20033;-70
2021/11/28 07:44:41;;;;;;;93.25;19.88;;;;;;;0.82;100.00;99954.28;5052041;28;20120;-70
2021/11/28 07:47:06;;;;;;;91.75;20.10;;;;;;;0.85;100.00;99951.47;5051722;28;20484;-77
2021/11/28 07:49:31;;;;;;;72.07;16.92;;;;;;;0.88;100.00;99964.34;5053288;28;20545;-70
2021/11/28 07:51:57;;;;;;;76.38;17.00;;;;;;;0.91;100.00;99971.19;5055930;28;20030;-70
2021/11/28 07:54:22;;;;;;;79.40;17.35;;;;;;;0.91;100.00;99973.81;5055042;28;20037;-71
2021/11/28 07:56:48;;;;;;;62.80;16.60;;;;;;;0.93;100.00;99974.56;5055701;28;20115;-71
2021/11/28 07:59:13;;;;;;;59.33;15.60;;;;;;;0.96;100.00;99977.81;5054882;28;20033;-71
2021/11/28 08:01:39;;;;;;;57.22;16.20;;;;;;;0.99;100.00;99993.34;5055303;28;20029;-73
2021/11/28 08:04:05;;;;;;;60.40;17.02;;;;;;;1.02;100.00;99995.75;5055259;28;20033;-73
2021/11/28 08:06:30;;;;;;;53.95;14.68;;;;;;;1.08;100.00;99991.91;5055173;28;20040;-73
2021/11/28 08:08:55;;;;;;;47.53;13.93;;;;;;;1.13;100.00;99994.22;5055803;28;20500;-74
2021/11/28 08:11:21;;;;;;;30.98;10.35;;;;;;;1.19;100.00;100005.16;5055675;28;20459;-71
2021/11/28 08:13:50;;;;;;;30.85;8.63;;;;;;;1.22;100.00;99997.13;5055554;28;20043;-72
2021/11/28 08:16:16;;;;;;;25.85;8.32;;;;;;;1.25;100.00;100000.47;5054902;28;20033;-71
2021/11/28 08:18:42;;;;;;;16.05;5.38;;;;;;;1.26;100.00;100002.97;5037555;28;20037;-70
2021/11/28 08:21:08;;;;;;;28.00;5.82;;;;;;;1.29;100.00;100007.19;5055102;28;20083;-73
2021/11/28 08:23:33;;;;;;;17.88;4.93;;;;;;;1.31;100.00;100015.78;5053885;28;20029;-70
2021/11/28 08:25:59;;;;;;;15.38;4.20;;;;;;;1.30;100.00;100014.97;5054934;28;20057;-72
2021/11/28 08:28:25;;;;;;;12.52;3.00;;;;;;;1.34;100.00;100031.31;5054560;28;20454;-71
2021/11/28 08:30:50;;;;;;;8.45;2.25;;;;;;;1.35;100.00;100030.38;5054938;28;20435;-71
2021/11/28 08:33:16;;;;;;;6.80;2.38;;;;;;;1.35;100.00;100033.84;5054189;28;20473;-71
2021/11/28 08:35:41;;;;;;;7.45;2.17;;;;;;;1.38;100.00;100041.50;5054806;28;20040;-71
2021/11/28 08:38:07;;;;;;;9.50;2.78;;;;;;;1.39;100.00;100039.72;5054652;28;20070;-71
2021/11/28 08:40:36;;;;;;;6.63;2.30;;;;;;;1.40;100.00;100044.00;5053892;28;20060;-72
2021/11/28 08:43:01;;;;;;;5.50;2.17;;;;;;;1.39;100.00;100039.72;5054676;28;20069;-72
2021/11/28 08:45:27;;;;;;;5.60;2.30;;;;;;;1.40;100.00;100047.50;5054263;28;20045;-71
2021/11/28 08:47:52;;;;;;;8.55;2.10;;;;;;;1.39;100.00;100047.59;5054967;28;20040;-72
2021/11/28 08:50:18;;;;;;;6.78;1.98;;;;;;;1.40;100.00;100055.34;5054068;28;20037;-72
2021/11/28 08:52:45;;;;;;;10.30;1.92;;;;;;;1.40;100.00;100050.13;5054549;28;20049;-73
2021/11/28 08:55:11;;;;;;;7.78;2.40;;;;;;;1.40;100.00;100055.34;5036448;28;20477;-72
2021/11/28 08:57:37;;;;;;;6.40;2.20;;;;;;;1.42;100.00;100055.25;5053785;28;20037;-72
2021/11/28 09:00:07;;;;;;;5.22;1.67;;;;;;;1.44;100.00;100063.03;5053760;28;20040;-72
2021/11/28 09:02:32;;;;;;;12.20;1.85;;;;;;;1.44;100.00;100066.47;5053616;28;20033;-72
2021/11/28 09:04:58;;;;;;;9.98;1.60;;;;;;;1.46;100.00;100071.63;5054586;28;20120;-72
2021/11/28 09:07:23;;;;;;;9.55;1.65;;;;;;;1.48;100.00;100074.97;5053630;28;20507;-72
2021/11/28 09:09:48;;;;;;;13.80;1.73;;;;;;;1.50;100.00;100076.56;5054192;28;20031;-73
2021/11/28 09:12:14;;;;;;;5.90;1.10;;;;;;;1.49;100.00;100081.91;5054112;28;20342;-71
2021/11/28 09:14:39;;;;;;;4.95;0.70;;;;;;;1.47;100.00;100087.25;5053872;28;20060;-71
2021/11/28 09:17:05;;;;;;;4.60;1.10;;;;;;;1.40;100.00;100085.97;5054127;28;20044;-71
2021/11/28 09:19:45;;;;;;;5.05;0.70;;;;;;;1.38;100.00;100086.06;5053366;28;20032;-71
2021/11/28 09:22:11;;;;;;;4.35;0.73;;;;;;;1.33;100.00;100085.53;5053941;28;20033;-71
2021/11/28 09:24:37;;;;;;;6.40;0.77;;;;;;;1.31;100.00;100089.19;5053059;28;20039;-70
2021/11/28 09:27:10;;;;;;;0.98;0.60;;;;;;;1.30;100.00;100096.22;5036357;28;20032;-72
2021/11/28 09:29:37;;;;;;;4.18;0.70;;;;;;;1.32;100.00;100093.50;5053204;28;20033;-72
2021/11/28 09:32:03;;;;;;;3.30;1.10;;;;;;;1.34;100.00;100095.06;5053716;28;20044;-72
2021/11/28 09:34:28;;;;;;;9.02;1.17;;;;;;;1.35;100.00;100099.38;5053009;28;20033;-73
2021/11/28 09:36:54;;;;;;;5.93;2.47;;;;;;;1.37;100.00;100091.41;5053761;28;20111;-71
2021/11/28 09:39:19;;;;;;;8.50;1.48;;;;;;;1.39;100.00;100094.78;5053735;28;20507;-75
2021/11/28 09:41:46;;;;;;;8.77;1.48;;;;;;;1.44;100.00;100097.09;5052079;28;20056;-78
2021/11/28 09:44:15;;;;;;;4.93;1.20;;;;;;;1.45;100.00;100091.75;5030105;28;20504;-73
2021/11/28 09:46:40;;;;;;;5.35;1.23;;;;;;;1.49;100.00;100095.00;5030364;28;20394;-72
2021/11/28 09:49:07;;;;;;;8.95;1.70;;;;;;;1.54;100.00;100087.72;5030837;28;20466;-74
2021/11/28 09:51:33;;;;;;;3.05;1.15;;;;;;;1.60;100.00;100087.31;5030292;28;20043;-74
2021/11/28 09:54:06;;;;;;;5.57;1.00;;;;;;;1.62;100.00;100074.94;5030242;28;20040;-75
2021/11/28 09:56:37;;;;;;;9.13;1.40;;;;;;;1.70;100.00;100071.78;5030317;28;20033;-75
2021/11/28 09:59:05;;;;;;;2.88;0.93;;;;;;;1.73;100.00;100077.69;5030782;28;20116;-73
2021/11/28 10:01:32;;;;;;;3.70;0.98;;;;;;;1.77;100.00;100071.28;5030495;28;20064;-74
2021/11/28 10:03:59;;;;;;;5.35;1.48;;;;;;;1.81;100.00;100063.22;5030880;28;20466;-74
2021/11/28 10:06:25;;;;;;;6.15;0.95;;;;;;;1.82;100.00;100068.38;5029855;28;20037;-76
2021/11/28 10:08:50;;;;;;;3.30;1.10;;;;;;;1.84;100.00;100063.88;5012570;28;20738;-72
2021/11/28 10:11:32;;;;;;;1.65;0.60;;;;;;;1.88;100.00;100070.59;5030034;28;20037;-73
2021/11/28 10:13:57;;;;;;;2.95;0.73;;;;;;;1.90;100.00;100071.31;5030555;28;20033;-74
2021/11/28 10:16:23;;;;;;;3.40;0.55;;;;;;;1.91;100.00;100080.03;5035369;28;20029;-77
2021/11/28 10:18:48;;;;;;;1.70;0.70;;;;;;;1.91;100.00;100077.41;5041958;28;20091;-72
2021/11/28 10:21:14;;;;;;;2.05;0.68;;;;;;;1.91;100.00;100074.78;5025055;28;20025;-72
2021/11/28 10:24:09;;;;;;;1.00;0.50;;;;;;;1.89;100.00;100077.50;5040426;28;20378;-73
2021/11/28 10:26:50;;;;;;;2.67;0.60;;;;;;;1.89;100.00;100074.88;5040161;28;20438;-73
2021/11/28 10:29:15;;;;;;;1.50;0.50;;;;;;;1.89;100.00;100074.06;5043241;28;20026;-72
2021/11/28 10:31:47;;;;;;;3.03;0.43;;;;;;;1.89;100.00;100085.38;5040787;28;20099;-73
2021/11/28 10:34:18;;;;;;;2.13;0.80;;;;;;;1.90;100.00;100091.47;5041777;28;20078;-73
2021/11/28 10:36:44;;;;;;;0.93;0.80;;;;;;;1.85;100.00;100099.66;5031694;28;20048;-73
2021/11/28 10:39:16;;;;;;;0.90;0.90;;;;;;;1.81;100.00;100107.81;5052567;28;20071;-72
2021/11/28 10:41:53;;;;;;;0.70;0.70;;;;;;;1.78;100.00;100098.38;5052136;28;20083;-73
2021/11/28 10:44:21;;;;;;;1.52;1.10;;;;;;;1.76;100.00;100098.47;5052776;28;20036;-72
2021/11/28 10:46:47;;;;;;;1.20;1.02;;;;;;;1.75;100.00;100103.81;5051899;28;20025;-72
2021/11/28 10:49:16;;;;;;;1.23;0.90;;;;;;;1.72;100.00;100101.41;5052441;28;20035;-72
2021/11/28 10:51:45;;;;;;;2.25;1.00;;;;;;;1.70;100.00;100101.50;5051800;28;20074;-71
2021/11/28 10:54:22;;;;;;;5.18;0.93;;;;;;;1.73;100.00;100108.31;5052462;28;20485;-72
2021/11/28 10:56:49;;;;;;;2.58;0.65;;;;;;;1.72;100.00;100115.34;5051689;28;20056;-72
2021/11/28 10:59:19;;;;;;;1.35;0.68;;;;;;;1.68;100.00;100113.84;5052531;28;20037;-72
2021/11/28 11:01:44;;;;;;;2.28;0.88;;;;;;;1.65;100.00;100087.84;5051652;28;20432;-72
2021/11/28 11:04:21;;;;;;;2.40;0.80;;;;;;;1.67;100.00;100087.72;5052318;28;20025;-72
2021/11/28 11:07:11;;;;;;;7.25;1.83;;;;;;;1.67;100.00;100088.59;5051415;28;20039;-72
2021/11/28 11:09:55;;;;;;;2.28;0.85;;;;;;;1.71;100.00;100097.09;5051559;28;20021;-72